Henrietta, Ohio
Current Conditions -  °F | °C
As of 11:53 PM on Monday 20 Oct 2014 (Local Time) from KLPR Reporting Station
Haze Haze  
Wind Chill: 52°   Ceiling: 1400
Heat Index: 52°   Visibility: 4mi
Dew Point: 51°   Wind: 8mph
Humidity: 97%   Direction: 290°WNW
Pressure: 29.86"   Gusts: NA
Location:  41.3705°N, 82.2583°W
Report Text: KLPR 210353Z AUTO 29007KT 4SM BR SCT009 BKN014 OVC022 11/11 A2986 RMK AO2 SLP111 T01110106 TSNO
Loading
Personal Weather Stations






























Interactive Weather Map
Tropical Storm Tracking
New forecast layout! Learn more

10-Day Weather Forecast

Advertisements
Track Severe Weather on mobile